sensor_id;sensor_type;location;lat;lon;timestamp;P1;durP1;ratioP1;P2;durP2;ratioP2
76373;SDS011;65197;50.164;8.012;2023-11-19T00:00:33;43.42;;;6.57;;
76373;SDS011;65197;50.164;8.012;2023-11-19T00:02:59;7.80;;;4.75;;
76373;SDS011;65197;50.164;8.012;2023-11-19T00:05:24;15.45;;;5.25;;
76373;SDS011;65197;50.164;8.012;2023-11-19T00:07:49;30.73;;;7.07;;
76373;SDS011;65197;50.164;8.012;2023-11-19T00:10:15;44.03;;;8.23;;
76373;SDS011;65197;50.164;8.012;2023-11-19T00:12:46;22.63;;;6.13;;
76373;SDS011;65197;50.164;8.012;2023-11-19T00:15:14;27.77;;;6.57;;
76373;SDS011;65197;50.164;8.012;2023-11-19T00:17:41;162.65;;;19.98;;
76373;SDS011;65197;50.164;8.012;2023-11-19T00:20:19;83.88;;;10.25;;
76373;SDS011;65197;50.164;8.012;2023-11-19T00:22:47;138.98;;;14.75;;
76373;SDS011;65197;50.164;8.012;2023-11-19T00:25:19;109.93;;;13.57;;
76373;SDS011;65197;50.164;8.012;2023-11-19T00:27:46;71.43;;;9.23;;
76373;SDS011;65197;50.164;8.012;2023-11-19T00:30:12;68.68;;;10.45;;
76373;SDS011;65197;50.164;8.012;2023-11-19T00:32:38;93.45;;;10.88;;
76373;SDS011;65197;50.164;8.012;2023-11-19T00:35:08;72.53;;;9.43;;
76373;SDS011;65197;50.164;8.012;2023-11-19T00:37:35;58.42;;;7.47;;
76373;SDS011;65197;50.164;8.012;2023-11-19T00:40:00;105.50;;;12.20;;
76373;SDS011;65197;50.164;8.012;2023-11-19T00:42:26;88.85;;;10.75;;
76373;SDS011;65197;50.164;8.012;2023-11-19T00:44:51;215.32;;;22.85;;
76373;SDS011;65197;50.164;8.012;2023-11-19T00:47:17;199.60;;;18.38;;
76373;SDS011;65197;50.164;8.012;2023-11-19T00:49:49;209.68;;;21.40;;
76373;SDS011;65197;50.164;8.012;2023-11-19T00:52:15;173.95;;;19.17;;
76373;SDS011;65197;50.164;8.012;2023-11-19T00:54:41;144.60;;;14.77;;
76373;SDS011;65197;50.164;8.012;2023-11-19T00:57:07;61.25;;;8.18;;
76373;SDS011;65197;50.164;8.012;2023-11-19T00:59:32;71.43;;;8.25;;
76373;SDS011;65197;50.164;8.012;2023-11-19T01:01:58;55.45;;;6.82;;
76373;SDS011;65197;50.164;8.012;2023-11-19T01:04:27;23.80;;;5.55;;
76373;SDS011;65197;50.164;8.012;2023-11-19T01:06:53;24.05;;;5.00;;
76373;SDS011;65197;50.164;8.012;2023-11-19T01:09:19;7.93;;;3.75;;
76373;SDS011;65197;50.164;8.012;2023-11-19T01:11:44;8.25;;;3.80;;
76373;SDS011;65197;50.164;8.012;2023-11-19T01:14:10;6.20;;;3.70;;
76373;SDS011;65197;50.164;8.012;2023-11-19T01:16:35;6.53;;;3.40;;
76373;SDS011;65197;50.164;8.012;2023-11-19T01:19:01;6.95;;;3.65;;
76373;SDS011;65197;50.164;8.012;2023-11-19T01:21:29;6.57;;;3.20;;
76373;SDS011;65197;50.164;8.012;2023-11-19T01:23:55;5.43;;;3.10;;
76373;SDS011;65197;50.164;8.012;2023-11-19T01:26:22;6.40;;;3.70;;
76373;SDS011;65197;50.164;8.012;2023-11-19T01:28:47;6.68;;;3.95;;
76373;SDS011;65197;50.164;8.012;2023-11-19T01:31:16;6.07;;;3.38;;
76373;SDS011;65197;50.164;8.012;2023-11-19T01:33:42;5.40;;;3.50;;
76373;SDS011;65197;50.164;8.012;2023-11-19T01:36:07;6.57;;;3.45;;
76373;SDS011;65197;50.164;8.012;2023-11-19T01:38:34;5.18;;;3.22;;
76373;SDS011;65197;50.164;8.012;2023-11-19T01:41:00;5.35;;;3.40;;
76373;SDS011;65197;50.164;8.012;2023-11-19T01:43:36;6.93;;;3.45;;
76373;SDS011;65197;50.164;8.012;2023-11-19T01:46:04;5.90;;;3.20;;
76373;SDS011;65197;50.164;8.012;2023-11-19T01:48:31;6.35;;;3.55;;
76373;SDS011;65197;50.164;8.012;2023-11-19T01:50:59;9.45;;;3.72;;
76373;SDS011;65197;50.164;8.012;2023-11-19T01:53:25;15.20;;;4.22;;
76373;SDS011;65197;50.164;8.012;2023-11-19T01:55:52;13.68;;;4.80;;
76373;SDS011;65197;50.164;8.012;2023-11-19T01:58:17;5.25;;;3.13;;
76373;SDS011;65197;50.164;8.012;2023-11-19T02:00:44;5.57;;;3.13;;
76373;SDS011;65197;50.164;8.012;2023-11-19T02:03:10;5.25;;;2.80;;
76373;SDS011;65197;50.164;8.012;2023-11-19T02:05:36;4.72;;;3.00;;
76373;SDS011;65197;50.164;8.012;2023-11-19T02:08:02;5.38;;;3.38;;
76373;SDS011;65197;50.164;8.012;2023-11-19T02:10:28;4.03;;;2.88;;
76373;SDS011;65197;50.164;8.012;2023-11-19T02:12:53;5.20;;;2.90;;
76373;SDS011;65197;50.164;8.012;2023-11-19T02:15:20;5.13;;;3.13;;
76373;SDS011;65197;50.164;8.012;2023-11-19T02:17:46;4.80;;;3.05;;
76373;SDS011;65197;50.164;8.012;2023-11-19T02:20:12;8.82;;;3.13;;
76373;SDS011;65197;50.164;8.012;2023-11-19T02:22:39;8.95;;;3.60;;
76373;SDS011;65197;50.164;8.012;2023-11-19T02:25:07;6.78;;;2.85;;
76373;SDS011;65197;50.164;8.012;2023-11-19T02:27:43;5.18;;;3.05;;
76373;SDS011;65197;50.164;8.012;2023-11-19T02:30:15;4.15;;;2.78;;
76373;SDS011;65197;50.164;8.012;2023-11-19T02:32:41;8.20;;;3.33;;
76373;SDS011;65197;50.164;8.012;2023-11-19T02:35:07;5.40;;;2.90;;
76373;SDS011;65197;50.164;8.012;2023-11-19T02:37:36;14.55;;;3.03;;
76373;SDS011;65197;50.164;8.012;2023-11-19T02:40:01;6.97;;;3.10;;
76373;SDS011;65197;50.164;8.012;2023-11-19T02:42:29;38.78;;;4.97;;
76373;SDS011;65197;50.164;8.012;2023-11-19T02:44:55;59.15;;;7.32;;
76373;SDS011;65197;50.164;8.012;2023-11-19T02:47:20;46.25;;;5.55;;
76373;SDS011;65197;50.164;8.012;2023-11-19T02:49:48;28.80;;;5.53;;
76373;SDS011;65197;50.164;8.012;2023-11-19T02:52:14;15.05;;;3.40;;
76373;SDS011;65197;50.164;8.012;2023-11-19T02:54:40;44.28;;;5.35;;
76373;SDS011;65197;50.164;8.012;2023-11-19T02:57:06;21.05;;;4.25;;
76373;SDS011;65197;50.164;8.012;2023-11-19T02:59:33;27.92;;;5.85;;
76373;SDS011;65197;50.164;8.012;2023-11-19T03:02:04;100.75;;;10.57;;
76373;SDS011;65197;50.164;8.012;2023-11-19T03:04:32;9.93;;;4.10;;
76373;SDS011;65197;50.164;8.012;2023-11-19T03:06:58;87.13;;;12.32;;
76373;SDS011;65197;50.164;8.012;2023-11-19T03:09:23;63.72;;;6.70;;
76373;SDS011;65197;50.164;8.012;2023-11-19T03:11:49;55.28;;;7.78;;
76373;SDS011;65197;50.164;8.012;2023-11-19T03:14:14;167.68;;;22.80;;
76373;SDS011;65197;50.164;8.012;2023-11-19T03:16:40;70.82;;;11.73;;
76373;SDS011;65197;50.164;8.012;2023-11-19T03:19:05;139.13;;;15.68;;
76373;SDS011;65197;50.164;8.012;2023-11-19T03:21:31;99.85;;;11.95;;
76373;SDS011;65197;50.164;8.012;2023-11-19T03:23:57;28.85;;;6.43;;
76373;SDS011;65197;50.164;8.012;2023-11-19T03:26:25;20.45;;;6.38;;
76373;SDS011;65197;50.164;8.012;2023-11-19T03:28:52;6.13;;;2.60;;
76373;SDS011;65197;50.164;8.012;2023-11-19T03:31:17;4.85;;;3.00;;
76373;SDS011;65197;50.164;8.012;2023-11-19T03:33:43;3.97;;;2.50;;
76373;SDS011;65197;50.164;8.012;2023-11-19T03:36:10;4.40;;;2.50;;
76373;SDS011;65197;50.164;8.012;2023-11-19T03:38:35;6.00;;;2.45;;
76373;SDS011;65197;50.164;8.012;2023-11-19T03:41:01;6.50;;;2.50;;
76373;SDS011;65197;50.164;8.012;2023-11-19T03:43:35;5.43;;;2.47;;
76373;SDS011;65197;50.164;8.012;2023-11-19T03:46:00;6.63;;;2.60;;
76373;SDS011;65197;50.164;8.012;2023-11-19T03:48:25;5.45;;;2.30;;
76373;SDS011;65197;50.164;8.012;2023-11-19T03:50:51;10.95;;;3.05;;
76373;SDS011;65197;50.164;8.012;2023-11-19T03:53:16;42.00;;;5.78;;
76373;SDS011;65197;50.164;8.012;2023-11-19T03:55:41;109.93;;;11.93;;
76373;SDS011;65197;50.164;8.012;2023-11-19T03:58:07;93.97;;;9.77;;
76373;SDS011;65197;50.164;8.012;2023-11-19T04:00:32;73.53;;;9.55;;
76373;SDS011;65197;50.164;8.012;2023-11-19T04:02:58;111.55;;;17.17;;
76373;SDS011;65197;50.164;8.012;2023-11-19T04:05:23;130.77;;;11.38;;
76373;SDS011;65197;50.164;8.012;2023-11-19T04:07:48;76.03;;;7.78;;
76373;SDS011;65197;50.164;8.012;2023-11-19T04:10:14;44.70;;;5.45;;
76373;SDS011;65197;50.164;8.012;2023-11-19T04:12:41;61.10;;;5.68;;
76373;SDS011;65197;50.164;8.012;2023-11-19T04:15:07;32.45;;;4.72;;
76373;SDS011;65197;50.164;8.012;2023-11-19T04:17:33;49.80;;;7.45;;
76373;SDS011;65197;50.164;8.012;2023-11-19T04:19:59;22.38;;;4.03;;
76373;SDS011;65197;50.164;8.012;2023-11-19T04:22:25;4.95;;;2.30;;
76373;SDS011;65197;50.164;8.012;2023-11-19T04:24:51;4.82;;;2.30;;
76373;SDS011;65197;50.164;8.012;2023-11-19T04:27:16;4.93;;;2.53;;
76373;SDS011;65197;50.164;8.012;2023-11-19T04:29:42;5.80;;;2.55;;
76373;SDS011;65197;50.164;8.012;2023-11-19T04:32:07;19.50;;;3.78;;
76373;SDS011;65197;50.164;8.012;2023-11-19T04:34:33;4.70;;;2.47;;
76373;SDS011;65197;50.164;8.012;2023-11-19T04:36:58;6.22;;;2.80;;
76373;SDS011;65197;50.164;8.012;2023-11-19T04:39:27;12.88;;;3.22;;
76373;SDS011;65197;50.164;8.012;2023-11-19T04:41:52;26.95;;;4.15;;
76373;SDS011;65197;50.164;8.012;2023-11-19T04:44:18;19.35;;;3.45;;
76373;SDS011;65197;50.164;8.012;2023-11-19T04:46:43;53.53;;;7.28;;
76373;SDS011;65197;50.164;8.012;2023-11-19T04:49:09;29.83;;;4.03;;
76373;SDS011;65197;50.164;8.012;2023-11-19T04:51:44;69.85;;;5.32;;
76373;SDS011;65197;50.164;8.012;2023-11-19T04:54:12;9.20;;;2.38;;
76373;SDS011;65197;50.164;8.012;2023-11-19T04:56:37;21.23;;;3.65;;
76373;SDS011;65197;50.164;8.012;2023-11-19T04:59:03;39.35;;;6.20;;
76373;SDS011;65197;50.164;8.012;2023-11-19T05:01:30;41.83;;;7.47;;
76373;SDS011;65197;50.164;8.012;2023-11-19T05:03:59;28.20;;;4.82;;
76373;SDS011;65197;50.164;8.012;2023-11-19T05:06:28;14.75;;;3.58;;
76373;SDS011;65197;50.164;8.012;2023-11-19T05:08:54;25.15;;;4.43;;
76373;SDS011;65197;50.164;8.012;2023-11-19T05:11:26;5.68;;;2.85;;
76373;SDS011;65197;50.164;8.012;2023-11-19T05:13:53;5.80;;;2.63;;
76373;SDS011;65197;50.164;8.012;2023-11-19T05:16:18;4.05;;;2.70;;
76373;SDS011;65197;50.164;8.012;2023-11-19T05:18:45;4.70;;;2.80;;
76373;SDS011;65197;50.164;8.012;2023-11-19T05:21:11;4.68;;;2.42;;
76373;SDS011;65197;50.164;8.012;2023-11-19T05:23:36;5.43;;;3.00;;
76373;SDS011;65197;50.164;8.012;2023-11-19T05:26:01;5.97;;;2.90;;
76373;SDS011;65197;50.164;8.012;2023-11-19T05:28:27;5.18;;;3.03;;
76373;SDS011;65197;50.164;8.012;2023-11-19T05:30:52;5.72;;;2.75;;
76373;SDS011;65197;50.164;8.012;2023-11-19T05:33:18;5.43;;;3.22;;
76373;SDS011;65197;50.164;8.012;2023-11-19T05:35:43;5.25;;;3.30;;
76373;SDS011;65197;50.164;8.012;2023-11-19T05:38:09;6.07;;;3.05;;
76373;SDS011;65197;50.164;8.012;2023-11-19T05:40:34;5.97;;;3.10;;
76373;SDS011;65197;50.164;8.012;2023-11-19T05:43:00;7.25;;;3.58;;
76373;SDS011;65197;50.164;8.012;2023-11-19T05:45:25;6.55;;;3.15;;
76373;SDS011;65197;50.164;8.012;2023-11-19T05:47:51;6.72;;;3.53;;
76373;SDS011;65197;50.164;8.012;2023-11-19T05:50:17;5.57;;;3.30;;
76373;SDS011;65197;50.164;8.012;2023-11-19T05:52:42;6.30;;;3.17;;
76373;SDS011;65197;50.164;8.012;2023-11-19T05:55:08;8.02;;;3.05;;
76373;SDS011;65197;50.164;8.012;2023-11-19T05:57:38;7.68;;;3.28;;
76373;SDS011;65197;50.164;8.012;2023-11-19T06:00:03;8.55;;;3.45;;
76373;SDS011;65197;50.164;8.012;2023-11-19T06:02:35;7.10;;;3.08;;
76373;SDS011;65197;50.164;8.012;2023-11-19T06:05:03;8.52;;;2.88;;
76373;SDS011;65197;50.164;8.012;2023-11-19T06:07:30;6.43;;;3.33;;
76373;SDS011;65197;50.164;8.012;2023-11-19T06:09:56;7.05;;;3.55;;
76373;SDS011;65197;50.164;8.012;2023-11-19T06:12:21;5.93;;;3.40;;
76373;SDS011;65197;50.164;8.012;2023-11-19T06:14:47;7.50;;;3.95;;
76373;SDS011;65197;50.164;8.012;2023-11-19T06:17:12;7.45;;;3.47;;
76373;SDS011;65197;50.164;8.012;2023-11-19T06:19:38;8.25;;;3.95;;
76373;SDS011;65197;50.164;8.012;2023-11-19T06:22:04;7.85;;;4.05;;
76373;SDS011;65197;50.164;8.012;2023-11-19T06:24:29;7.57;;;3.92;;
76373;SDS011;65197;50.164;8.012;2023-11-19T06:26:54;9.30;;;3.53;;
76373;SDS011;65197;50.164;8.012;2023-11-19T06:29:20;6.00;;;2.80;;
76373;SDS011;65197;50.164;8.012;2023-11-19T06:31:46;8.05;;;3.88;;
76373;SDS011;65197;50.164;8.012;2023-11-19T06:34:13;8.25;;;3.75;;
76373;SDS011;65197;50.164;8.012;2023-11-19T06:36:39;8.23;;;3.40;;
76373;SDS011;65197;50.164;8.012;2023-11-19T06:39:04;6.55;;;3.03;;
76373;SDS011;65197;50.164;8.012;2023-11-19T06:41:30;7.88;;;3.83;;
76373;SDS011;65197;50.164;8.012;2023-11-19T06:43:56;9.00;;;3.22;;
76373;SDS011;65197;50.164;8.012;2023-11-19T06:46:21;6.68;;;2.95;;
76373;SDS011;65197;50.164;8.012;2023-11-19T06:48:47;7.22;;;3.53;;
76373;SDS011;65197;50.164;8.012;2023-11-19T06:51:12;6.93;;;2.85;;
76373;SDS011;65197;50.164;8.012;2023-11-19T06:53:38;7.38;;;3.30;;
76373;SDS011;65197;50.164;8.012;2023-11-19T06:56:05;5.70;;;2.97;;
76373;SDS011;65197;50.164;8.012;2023-11-19T06:58:35;7.03;;;2.95;;
76373;SDS011;65197;50.164;8.012;2023-11-19T07:01:01;5.45;;;3.10;;
76373;SDS011;65197;50.164;8.012;2023-11-19T07:03:26;9.75;;;2.95;;
76373;SDS011;65197;50.164;8.012;2023-11-19T07:05:52;7.13;;;3.33;;
76373;SDS011;65197;50.164;8.012;2023-11-19T07:08:17;8.30;;;3.47;;
76373;SDS011;65197;50.164;8.012;2023-11-19T07:10:42;7.25;;;3.40;;
76373;SDS011;65197;50.164;8.012;2023-11-19T07:13:08;7.18;;;2.90;;
76373;SDS011;65197;50.164;8.012;2023-11-19T07:15:33;7.45;;;3.45;;
76373;SDS011;65197;50.164;8.012;2023-11-19T07:17:58;6.97;;;3.20;;
76373;SDS011;65197;50.164;8.012;2023-11-19T07:20:24;9.25;;;3.42;;
76373;SDS011;65197;50.164;8.012;2023-11-19T07:22:51;7.72;;;3.30;;
76373;SDS011;65197;50.164;8.012;2023-11-19T07:25:17;6.43;;;3.05;;
76373;SDS011;65197;50.164;8.012;2023-11-19T07:27:42;6.32;;;3.08;;
76373;SDS011;65197;50.164;8.012;2023-11-19T07:30:08;8.40;;;3.35;;
76373;SDS011;65197;50.164;8.012;2023-11-19T07:32:34;7.35;;;3.13;;
76373;SDS011;65197;50.164;8.012;2023-11-19T07:34:59;7.53;;;3.10;;
76373;SDS011;65197;50.164;8.012;2023-11-19T07:37:24;8.02;;;3.38;;
76373;SDS011;65197;50.164;8.012;2023-11-19T07:39:50;5.88;;;3.00;;
76373;SDS011;65197;50.164;8.012;2023-11-19T07:42:15;10.55;;;3.25;;
76373;SDS011;65197;50.164;8.012;2023-11-19T07:44:41;9.88;;;3.15;;
76373;SDS011;65197;50.164;8.012;2023-11-19T07:47:06;8.98;;;3.40;;
76373;SDS011;65197;50.164;8.012;2023-11-19T07:49:32;7.78;;;3.25;;
76373;SDS011;65197;50.164;8.012;2023-11-19T07:51:58;7.10;;;3.55;;
76373;SDS011;65197;50.164;8.012;2023-11-19T07:54:24;8.10;;;3.03;;
76373;SDS011;65197;50.164;8.012;2023-11-19T07:56:49;4.93;;;3.85;;
76373;SDS011;65197;50.164;8.012;2023-11-19T07:59:15;5.20;;;3.13;;
76373;SDS011;65197;50.164;8.012;2023-11-19T08:01:41;7.10;;;3.20;;
76373;SDS011;65197;50.164;8.012;2023-11-19T08:04:06;6.30;;;2.95;;
76373;SDS011;65197;50.164;8.012;2023-11-19T08:06:31;7.65;;;3.67;;
76373;SDS011;65197;50.164;8.012;2023-11-19T08:08:57;6.15;;;3.22;;
76373;SDS011;65197;50.164;8.012;2023-11-19T08:11:22;7.50;;;3.70;;
76373;SDS011;65197;50.164;8.012;2023-11-19T08:13:47;6.25;;;3.08;;
76373;SDS011;65197;50.164;8.012;2023-11-19T08:16:13;8.32;;;2.80;;
76373;SDS011;65197;50.164;8.012;2023-11-19T08:18:41;4.78;;;2.40;;
76373;SDS011;65197;50.164;8.012;2023-11-19T08:21:08;5.28;;;1.90;;
76373;SDS011;65197;50.164;8.012;2023-11-19T08:23:33;5.65;;;2.08;;
76373;SDS011;65197;50.164;8.012;2023-11-19T08:25:59;4.28;;;2.22;;
76373;SDS011;65197;50.164;8.012;2023-11-19T08:28:24;6.78;;;2.70;;
76373;SDS011;65197;50.164;8.012;2023-11-19T08:30:50;6.80;;;2.92;;
76373;SDS011;65197;50.164;8.012;2023-11-19T08:33:16;7.88;;;2.45;;
76373;SDS011;65197;50.164;8.012;2023-11-19T08:35:42;6.25;;;2.35;;
76373;SDS011;65197;50.164;8.012;2023-11-19T08:38:07;7.80;;;2.35;;
76373;SDS011;65197;50.164;8.012;2023-11-19T08:40:33;11.20;;;2.88;;
76373;SDS011;65197;50.164;8.012;2023-11-19T08:42:58;8.52;;;2.40;;
76373;SDS011;65197;50.164;8.012;2023-11-19T08:45:23;6.65;;;1.95;;
76373;SDS011;65197;50.164;8.012;2023-11-19T08:47:49;6.10;;;2.53;;
76373;SDS011;65197;50.164;8.012;2023-11-19T08:50:15;13.63;;;3.10;;
76373;SDS011;65197;50.164;8.012;2023-11-19T08:52:40;7.70;;;2.40;;
76373;SDS011;65197;50.164;8.012;2023-11-19T08:55:06;8.23;;;1.90;;
76373;SDS011;65197;50.164;8.012;2023-11-19T08:57:32;6.88;;;2.22;;
76373;SDS011;65197;50.164;8.012;2023-11-19T08:59:58;10.35;;;3.25;;
76373;SDS011;65197;50.164;8.012;2023-11-19T09:02:23;8.07;;;2.03;;
76373;SDS011;65197;50.164;8.012;2023-11-19T09:04:48;6.32;;;2.33;;
76373;SDS011;65197;50.164;8.012;2023-11-19T09:07:14;10.10;;;2.40;;
76373;SDS011;65197;50.164;8.012;2023-11-19T09:09:39;6.80;;;2.17;;
76373;SDS011;65197;50.164;8.012;2023-11-19T09:12:06;6.95;;;2.22;;
76373;SDS011;65197;50.164;8.012;2023-11-19T09:14:32;9.85;;;2.67;;
76373;SDS011;65197;50.164;8.012;2023-11-19T09:16:58;8.48;;;2.13;;
76373;SDS011;65197;50.164;8.012;2023-11-19T09:19:23;5.32;;;2.13;;
76373;SDS011;65197;50.164;8.012;2023-11-19T09:21:49;8.35;;;2.20;;
76373;SDS011;65197;50.164;8.012;2023-11-19T09:24:15;6.75;;;2.42;;
76373;SDS011;65197;50.164;8.012;2023-11-19T09:26:40;6.55;;;2.20;;
76373;SDS011;65197;50.164;8.012;2023-11-19T09:29:07;5.20;;;2.10;;
76373;SDS011;65197;50.164;8.012;2023-11-19T09:31:32;9.13;;;2.22;;
76373;SDS011;65197;50.164;8.012;2023-11-19T09:33:58;6.00;;;2.25;;
76373;SDS011;65197;50.164;8.012;2023-11-19T09:36:23;4.93;;;1.95;;
76373;SDS011;65197;50.164;8.012;2023-11-19T09:38:49;4.82;;;2.17;;
76373;SDS011;65197;50.164;8.012;2023-11-19T09:41:14;4.93;;;2.35;;
76373;SDS011;65197;50.164;8.012;2023-11-19T09:43:40;6.97;;;2.15;;
76373;SDS011;65197;50.164;8.012;2023-11-19T09:46:07;11.43;;;2.30;;
76373;SDS011;65197;50.164;8.012;2023-11-19T09:48:37;6.88;;;2.13;;
76373;SDS011;65197;50.164;8.012;2023-11-19T09:51:06;12.10;;;2.35;;
76373;SDS011;65197;50.164;8.012;2023-11-19T09:53:33;7.38;;;1.98;;
76373;SDS011;65197;50.164;8.012;2023-11-19T09:55:59;6.32;;;2.10;;
76373;SDS011;65197;50.164;8.012;2023-11-19T09:58:27;6.25;;;1.98;;
76373;SDS011;65197;50.164;8.012;2023-11-19T10:00:53;5.50;;;2.45;;
76373;SDS011;65197;50.164;8.012;2023-11-19T10:03:19;8.95;;;2.63;;
76373;SDS011;65197;50.164;8.012;2023-11-19T10:05:45;8.35;;;2.25;;
76373;SDS011;65197;50.164;8.012;2023-11-19T10:08:10;6.40;;;1.90;;
76373;SDS011;65197;50.164;8.012;2023-11-19T10:10:36;8.25;;;2.10;;
76373;SDS011;65197;50.164;8.012;2023-11-19T10:13:02;5.70;;;1.92;;
76373;SDS011;65197;50.164;8.012;2023-11-19T10:15:28;9.82;;;2.10;;
76373;SDS011;65197;50.164;8.012;2023-11-19T10:18:00;7.97;;;2.15;;
76373;SDS011;65197;50.164;8.012;2023-11-19T10:20:26;8.38;;;2.13;;
76373;SDS011;65197;50.164;8.012;2023-11-19T10:22:54;5.50;;;2.10;;
76373;SDS011;65197;50.164;8.012;2023-11-19T10:25:25;7.90;;;2.05;;
76373;SDS011;65197;50.164;8.012;2023-11-19T10:27:52;9.25;;;2.13;;
76373;SDS011;65197;50.164;8.012;2023-11-19T10:30:24;10.45;;;2.47;;
76373;SDS011;65197;50.164;8.012;2023-11-19T10:33:02;10.38;;;2.20;;
76373;SDS011;65197;50.164;8.012;2023-11-19T10:35:27;10.27;;;2.55;;
76373;SDS011;65197;50.164;8.012;2023-11-19T10:37:53;10.30;;;2.05;;
76373;SDS011;65197;50.164;8.012;2023-11-19T10:40:18;6.40;;;1.88;;
76373;SDS011;65197;50.164;8.012;2023-11-19T10:42:43;11.68;;;2.58;;
76373;SDS011;65197;50.164;8.012;2023-11-19T10:45:22;10.20;;;2.58;;
76373;SDS011;65197;50.164;8.012;2023-11-19T10:47:51;10.48;;;2.63;;
76373;SDS011;65197;50.164;8.012;2023-11-19T10:50:17;7.25;;;2.38;;
76373;SDS011;65197;50.164;8.012;2023-11-19T10:52:42;7.88;;;2.35;;
76373;SDS011;65197;50.164;8.012;2023-11-19T10:55:09;11.05;;;2.47;;
76373;SDS011;65197;50.164;8.012;2023-11-19T10:57:36;7.90;;;2.95;;
76373;SDS011;65197;50.164;8.012;2023-11-19T11:00:05;11.95;;;3.45;;
76373;SDS011;65197;50.164;8.012;2023-11-19T11:02:37;4.97;;;2.55;;
76373;SDS011;65197;50.164;8.012;2023-11-19T11:05:06;12.75;;;2.42;;
76373;SDS011;65197;50.164;8.012;2023-11-19T11:07:33;9.55;;;2.30;;
76373;SDS011;65197;50.164;8.012;2023-11-19T11:10:00;11.27;;;2.72;;
76373;SDS011;65197;50.164;8.012;2023-11-19T11:12:28;10.35;;;2.28;;
76373;SDS011;65197;50.164;8.012;2023-11-19T11:14:55;11.35;;;2.60;;
76373;SDS011;65197;50.164;8.012;2023-11-19T11:17:21;12.77;;;3.70;;
76373;SDS011;65197;50.164;8.012;2023-11-19T11:19:53;7.25;;;2.38;;
76373;SDS011;65197;50.164;8.012;2023-11-19T11:22:18;10.88;;;2.50;;
76373;SDS011;65197;50.164;8.012;2023-11-19T11:24:52;8.77;;;2.20;;
76373;SDS011;65197;50.164;8.012;2023-11-19T11:41:17;8.60;;;2.40;;
76373;SDS011;65197;50.164;8.012;2023-11-19T11:43:56;9.00;;;3.03;;
76373;SDS011;65197;50.164;8.012;2023-11-19T11:49:00;9.65;;;2.50;;
76373;SDS011;65197;50.164;8.012;2023-11-19T11:54:08;8.85;;;1.98;;
76373;SDS011;65197;50.164;8.012;2023-11-19T11:56:36;9.48;;;3.05;;
76373;SDS011;65197;50.164;8.012;2023-11-19T11:59:02;11.10;;;2.40;;
76373;SDS011;65197;50.164;8.012;2023-11-19T12:01:27;7.35;;;2.00;;
76373;SDS011;65197;50.164;8.012;2023-11-19T12:03:55;9.10;;;2.15;;
76373;SDS011;65197;50.164;8.012;2023-11-19T12:06:21;6.38;;;2.75;;
76373;SDS011;65197;50.164;8.012;2023-11-19T12:08:47;7.68;;;2.20;;
76373;SDS011;65197;50.164;8.012;2023-11-19T12:11:12;6.88;;;1.77;;
76373;SDS011;65197;50.164;8.012;2023-11-19T12:13:52;7.35;;;1.73;;
76373;SDS011;65197;50.164;8.012;2023-11-19T12:16:24;6.70;;;2.00;;
76373;SDS011;65197;50.164;8.012;2023-11-19T12:18:49;14.30;;;2.40;;
76373;SDS011;65197;50.164;8.012;2023-11-19T12:21:30;7.55;;;2.15;;
76373;SDS011;65197;50.164;8.012;2023-11-19T12:23:57;7.13;;;1.88;;
76373;SDS011;65197;50.164;8.012;2023-11-19T12:26:32;5.72;;;1.70;;
76373;SDS011;65197;50.164;8.012;2023-11-19T12:28:59;5.57;;;1.67;;
76373;SDS011;65197;50.164;8.012;2023-11-19T12:31:25;4.28;;;1.95;;
76373;SDS011;65197;50.164;8.012;2023-11-19T12:33:51;7.88;;;2.00;;
76373;SDS011;65197;50.164;8.012;2023-11-19T12:36:17;4.82;;;1.60;;
76373;SDS011;65197;50.164;8.012;2023-11-19T12:38:42;5.93;;;1.42;;
76373;SDS011;65197;50.164;8.012;2023-11-19T12:41:10;4.10;;;1.83;;
76373;SDS011;65197;50.164;8.012;2023-11-19T12:43:37;8.57;;;1.92;;
76373;SDS011;65197;50.164;8.012;2023-11-19T12:46:21;10.45;;;2.05;;
76373;SDS011;65197;50.164;8.012;2023-11-19T12:48:47;6.28;;;1.70;;
76373;SDS011;65197;50.164;8.012;2023-11-19T12:51:13;8.52;;;2.15;;
76373;SDS011;65197;50.164;8.012;2023-11-19T12:53:49;7.03;;;2.10;;
76373;SDS011;65197;50.164;8.012;2023-11-19T12:56:19;8.13;;;1.75;;
76373;SDS011;65197;50.164;8.012;2023-11-19T12:58:46;8.82;;;2.17;;
76373;SDS011;65197;50.164;8.012;2023-11-19T13:01:15;6.85;;;1.70;;
76373;SDS011;65197;50.164;8.012;2023-11-19T13:03:45;6.65;;;1.88;;
76373;SDS011;65197;50.164;8.012;2023-11-19T13:06:12;4.55;;;1.50;;
76373;SDS011;65197;50.164;8.012;2023-11-19T13:08:41;7.55;;;1.65;;
76373;SDS011;65197;50.164;8.012;2023-11-19T13:11:08;6.70;;;2.53;;
76373;SDS011;65197;50.164;8.012;2023-11-19T13:16:22;5.00;;;2.10;;
76373;SDS011;65197;50.164;8.012;2023-11-19T13:18:48;8.50;;;1.98;;
76373;SDS011;65197;50.164;8.012;2023-11-19T13:21:13;8.93;;;2.03;;
76373;SDS011;65197;50.164;8.012;2023-11-19T13:23:38;10.20;;;2.00;;
76373;SDS011;65197;50.164;8.012;2023-11-19T13:26:04;8.57;;;2.25;;
76373;SDS011;65197;50.164;8.012;2023-11-19T13:28:29;10.25;;;2.50;;
76373;SDS011;65197;50.164;8.012;2023-11-19T13:30:55;4.97;;;1.70;;
76373;SDS011;65197;50.164;8.012;2023-11-19T13:33:21;6.63;;;1.90;;
76373;SDS011;65197;50.164;8.012;2023-11-19T13:35:46;5.20;;;1.98;;
76373;SDS011;65197;50.164;8.012;2023-11-19T13:38:12;4.45;;;1.60;;
76373;SDS011;65197;50.164;8.012;2023-11-19T13:40:37;7.47;;;2.05;;
76373;SDS011;65197;50.164;8.012;2023-11-19T13:43:04;4.20;;;1.50;;
76373;SDS011;65197;50.164;8.012;2023-11-19T13:45:29;9.45;;;1.80;;
76373;SDS011;65197;50.164;8.012;2023-11-19T13:47:54;6.85;;;1.67;;
76373;SDS011;65197;50.164;8.012;2023-11-19T13:50:20;5.57;;;2.03;;
76373;SDS011;65197;50.164;8.012;2023-11-19T13:52:45;9.38;;;2.10;;
76373;SDS011;65197;50.164;8.012;2023-11-19T13:55:12;8.05;;;1.77;;
76373;SDS011;65197;50.164;8.012;2023-11-19T13:57:38;5.97;;;1.60;;
76373;SDS011;65197;50.164;8.012;2023-11-19T14:00:08;8.68;;;2.05;;
76373;SDS011;65197;50.164;8.012;2023-11-19T14:02:38;6.55;;;1.80;;
76373;SDS011;65197;50.164;8.012;2023-11-19T14:05:13;6.65;;;1.85;;
76373;SDS011;65197;50.164;8.012;2023-11-19T14:07:40;6.80;;;1.88;;
76373;SDS011;65197;50.164;8.012;2023-11-19T14:10:06;7.78;;;2.17;;
76373;SDS011;65197;50.164;8.012;2023-11-19T14:12:34;5.88;;;1.92;;
76373;SDS011;65197;50.164;8.012;2023-11-19T14:15:00;8.93;;;1.83;;
76373;SDS011;65197;50.164;8.012;2023-11-19T14:17:26;8.20;;;2.10;;
76373;SDS011;65197;50.164;8.012;2023-11-19T14:19:51;6.32;;;1.60;;
76373;SDS011;65197;50.164;8.012;2023-11-19T14:22:17;8.57;;;1.88;;
76373;SDS011;65197;50.164;8.012;2023-11-19T14:24:42;8.68;;;1.83;;
76373;SDS011;65197;50.164;8.012;2023-11-19T14:27:08;8.88;;;2.00;;
76373;SDS011;65197;50.164;8.012;2023-11-19T14:29:34;5.32;;;1.88;;
76373;SDS011;65197;50.164;8.012;2023-11-19T14:32:00;8.38;;;1.92;;
76373;SDS011;65197;50.164;8.012;2023-11-19T14:34:26;7.15;;;2.03;;
76373;SDS011;65197;50.164;8.012;2023-11-19T14:36:52;8.55;;;2.17;;
76373;SDS011;65197;50.164;8.012;2023-11-19T14:39:18;6.47;;;1.63;;
76373;SDS011;65197;50.164;8.012;2023-11-19T14:41:44;7.53;;;1.92;;
76373;SDS011;65197;50.164;8.012;2023-11-19T14:44:09;6.75;;;1.60;;
76373;SDS011;65197;50.164;8.012;2023-11-19T14:46:35;6.50;;;1.80;;
76373;SDS011;65197;50.164;8.012;2023-11-19T14:49:01;6.05;;;1.83;;
76373;SDS011;65197;50.164;8.012;2023-11-19T14:51:26;7.82;;;1.90;;
76373;SDS011;65197;50.164;8.012;2023-11-19T14:53:52;7.93;;;1.80;;
76373;SDS011;65197;50.164;8.012;2023-11-19T14:56:17;7.05;;;2.08;;
76373;SDS011;65197;50.164;8.012;2023-11-19T14:58:43;5.20;;;1.83;;
76373;SDS011;65197;50.164;8.012;2023-11-19T15:01:13;8.20;;;1.63;;